Time;durP1;ratioP1;P1;durP2;ratioP2;P2;SDS_P1;SDS_P2;PMS_P1;PMS_P2;Temp;Humidity;BMP_temperature;BMP_pressure;BME280_temperature;BME280_humidity;BME280_pressure;Samples;Min_cycle;Max_cycle;Signal;HPM_P1;HPM_P2
2023/09/11 00:00:11;;;;;;;14.35;12.73;;;;;;;29.88;100.00;96193.88;6138018;23;20001;-92
2023/09/11 00:02:36;;;;;;;16.90;13.20;;;;;;;29.92;100.00;96190.31;6138231;23;20028;-91
2023/09/11 00:05:02;;;;;;;14.13;12.40;;;;;;;29.91;100.00;96188.69;6138314;23;20010;-91
2023/09/11 00:07:28;;;;;;;17.05;12.52;;;;;;;30.05;100.00;96184.25;6163276;23;20032;-91
2023/09/11 00:10:12;;;;;;;14.13;12.38;;;;;;;29.85;100.00;96184.41;6138170;23;20070;-91
2023/09/11 00:12:37;;;;;;;13.32;11.90;;;;;;;29.81;100.00;96177.94;6163032;23;20001;-91
2023/09/11 00:15:03;;;;;;;14.15;12.70;;;;;;;28.93;100.00;96186.81;6138324;23;20012;-91
2023/09/11 00:17:29;;;;;;;16.15;12.57;;;;;;;29.39;100.00;96181.19;6162666;23;20088;-91
2023/09/11 00:19:55;;;;;;;13.88;12.50;;;;;;;29.51;100.00;96179.75;6163423;23;20012;-91
2023/09/11 00:22:21;;;;;;;17.10;13.63;;;;;;;29.74;100.00;96174.72;6163010;23;19997;-91
2023/09/11 00:24:46;;;;;;;15.27;13.10;;;;;;;30.00;100.00;96167.19;6162559;23;20005;-91
2023/09/11 00:27:12;;;;;;;14.45;12.20;;;;;;;30.16;100.00;96173.31;6162750;23;20031;-91
2023/09/11 00:29:37;;;;;;;13.05;11.65;;;;;;;29.76;100.00;96169.84;6162550;23;20013;-91
2023/09/11 00:32:03;;;;;;;14.05;12.63;;;;;;;29.44;100.00;96173.00;6163101;23;19997;-91
2023/09/11 00:34:32;;;;;;;15.18;12.38;;;;;;;29.80;100.00;96165.47;6138126;23;20013;-91
2023/09/11 00:36:58;;;;;;;13.68;12.27;;;;;;;29.81;100.00;96162.50;6162768;23;20009;-91
2023/09/11 00:39:23;;;;;;;15.63;14.02;;;;;;;28.69;100.00;96157.66;6138206;23;20019;-92
2023/09/11 00:41:49;;;;;;;15.05;12.10;;;;;;;29.52;100.00;96158.88;6140102;23;20088;-91
2023/09/11 00:44:15;;;;;;;14.07;11.75;;;;;;;29.77;100.00;96163.31;6184430;23;19996;-91
2023/09/11 00:46:41;;;;;;;14.85;13.32;;;;;;;29.52;100.00;96158.88;6145462;23;20075;-91
2023/09/11 00:49:07;;;;;;;14.15;12.65;;;;;;;29.20;100.00;96160.16;6138483;23;20005;-91
2023/09/11 00:51:34;;;;;;;14.52;12.63;;;;;;;29.23;100.00;96156.88;6137906;23;20430;-91
2023/09/11 00:54:00;;;;;;;15.10;13.18;;;;;;;28.85;100.00;96156.53;6137504;23;20008;-91
2023/09/11 00:56:26;;;;;;;15.05;13.20;;;;;;;29.01;100.00;96156.50;6161929;23;20036;-91
2023/09/11 00:58:52;;;;;;;14.05;12.55;;;;;;;29.02;100.00;96163.53;6139309;23;20005;-91
2023/09/11 01:04:59;;;;;;;14.75;12.68;;;;;;;29.22;100.00;96157.19;6188826;23;20044;-91
2023/09/11 01:07:25;;;;;;;14.52;11.45;;;;;;;29.25;100.00;96145.78;6162606;23;20009;-91
2023/09/11 01:09:51;;;;;;;13.70;11.63;;;;;;;28.89;100.00;96152.16;6138052;23;20315;-91
2023/09/11 01:12:16;;;;;;;13.30;11.65;;;;;;;28.84;100.00;96149.50;6138569;23;20001;-91
2023/09/11 01:14:42;;;;;;;12.38;11.10;;;;;;;29.30;100.00;96141.13;6137744;23;20059;-91
2023/09/11 01:17:13;;;;;;;13.63;12.07;;;;;;;29.22;100.00;96138.22;6137865;23;20012;-91
2023/09/11 01:20:09;;;;;;;13.43;11.52;;;;;;;29.19;100.00;96142.28;6161824;23;20035;-91
2023/09/11 01:23:00;;;;;;;13.10;11.73;;;;;;;29.13;100.00;96136.09;6162328;23;20323;-91
2023/09/11 01:25:32;;;;;;;13.30;11.93;;;;;;;29.00;100.00;96136.72;6137660;23;20009;-91
2023/09/11 01:28:33;;;;;;;14.38;12.88;;;;;;;29.11;100.00;96134.78;6162760;23;20009;-91
2023/09/11 01:31:00;;;;;;;13.07;11.07;;;;;;;29.69;100.00;96136.84;6137797;23;20012;-91
2023/09/11 01:33:25;;;;;;;13.63;12.23;;;;;;;29.09;100.00;96134.22;6162328;23;20003;-91
2023/09/11 01:35:51;;;;;;;15.52;12.65;;;;;;;28.86;100.00;96131.06;6137959;23;20028;-91
2023/09/11 01:38:18;;;;;;;14.93;12.95;;;;;;;28.77;100.00;96132.75;6138265;23;20001;-91
2023/09/11 01:40:47;;;;;;;14.07;12.57;;;;;;;28.99;100.00;96128.84;6138201;23;20001;-91
2023/09/11 01:43:15;;;;;;;15.23;11.82;;;;;;;28.68;100.00;96126.28;6139162;23;20067;-91
2023/09/11 01:45:41;;;;;;;16.42;13.48;;;;;;;28.52;100.00;96124.72;6139110;23;20005;-91
2023/09/11 01:48:08;;;;;;;13.52;12.13;;;;;;;28.87;100.00;96126.47;6139607;23;20009;-91
2023/09/11 01:50:40;;;;;;;13.00;11.68;;;;;;;28.90;100.00;96120.50;6139883;23;20068;-91
2023/09/11 01:56:36;;;;;;;14.23;11.85;;;;;;;28.90;100.00;96125.91;6162959;23;20076;-91
2023/09/11 01:59:02;;;;;;;17.88;15.05;;;;;;;29.02;100.00;96122.91;6137925;23;20009;-91
2023/09/11 02:01:27;;;;;;;17.17;12.88;;;;;;;28.86;100.00;96131.06;6137660;23;20001;-91
2023/09/11 02:03:53;;;;;;;13.05;11.70;;;;;;;29.05;100.00;96125.06;6137605;23;20009;-91
2023/09/11 02:06:27;;;;;;;14.13;12.65;;;;;;;28.97;100.00;96128.31;6140593;23;20053;-91
2023/09/11 02:08:53;;;;;;;13.20;11.85;;;;;;;28.89;100.00;96125.09;6164711;23;20036;-89
2023/09/11 02:11:20;;;;;;;14.00;12.45;;;;;;;28.95;100.00;96122.38;6139489;23;20009;-91
2023/09/11 02:13:46;;;;;;;14.27;12.77;;;;;;;28.43;100.00;96133.41;6174939;23;20005;-90
2023/09/11 02:16:12;;;;;;;12.57;11.27;;;;;;;28.16;100.00;96128.28;6163947;23;20004;-91
2023/09/11 02:18:38;;;;;;;15.52;11.93;;;;;;;28.20;100.00;96125.84;6164798;23;20005;-91
2023/09/11 02:21:11;;;;;;;14.13;11.82;;;;;;;27.95;100.00;96126.72;6169081;23;20047;-91
2023/09/11 02:23:37;;;;;;;13.60;12.18;;;;;;;28.00;100.00;96128.59;6164979;23;20027;-91
2023/09/11 02:26:02;;;;;;;15.20;12.80;;;;;;;27.78;100.00;96132.41;6140363;23;20001;-91
2023/09/11 02:28:28;;;;;;;12.50;10.68;;;;;;;27.66;100.00;96131.84;6139812;23;20005;-91
2023/09/11 02:30:54;;;;;;;12.70;11.40;;;;;;;27.73;100.00;96129.66;6139049;23;20011;-91
2023/09/11 02:33:19;;;;;;;14.40;11.32;;;;;;;27.72;100.00;96126.16;6163861;23;20020;-91
2023/09/11 02:35:52;;;;;;;12.93;11.18;;;;;;;27.81;100.00;96131.88;6139396;23;20009;-91
2023/09/11 02:38:17;;;;;;;14.77;11.05;;;;;;;27.46;100.00;96135.34;6139187;23;20056;-91
2023/09/11 02:40:43;;;;;;;11.75;10.55;;;;;;;27.69;100.00;96123.19;6139673;23;20348;-91
2023/09/11 02:43:08;;;;;;;12.95;11.05;;;;;;;27.67;100.00;96126.19;6138526;23;20001;-91
2023/09/11 02:45:34;;;;;;;11.25;10.07;;;;;;;27.78;100.00;96126.19;6139437;23;20009;-91
2023/09/11 02:47:59;;;;;;;12.07;10.88;;;;;;;27.68;100.00;96129.69;6163685;23;20008;-90
2023/09/11 02:50:25;;;;;;;13.55;10.50;;;;;;;27.71;100.00;96131.84;6140951;23;20004;-90
2023/09/11 02:56:34;;;;;;;12.13;10.50;;;;;;;27.66;100.00;96129.13;6190764;23;20088;-91
2023/09/11 02:58:59;;;;;;;13.00;11.00;;;;;;;27.74;100.00;96120.50;6141885;23;20028;-91
2023/09/11 03:01:25;;;;;;;13.27;11.88;;;;;;;27.60;100.00;96128.34;6141046;23;20012;-91
2023/09/11 03:04:20;;;;;;;14.32;11.60;;;;;;;27.67;100.00;96125.38;6142991;23;20426;-91
2023/09/11 03:06:46;;;;;;;13.45;11.50;;;;;;;28.01;100.00;96117.53;6141134;23;20000;-91
2023/09/11 03:09:11;;;;;;;13.95;11.43;;;;;;;27.75;100.00;96116.72;6165615;23;20005;-91
2023/09/11 03:11:37;;;;;;;13.10;11.48;;;;;;;28.00;100.00;96112.38;6153488;23;19997;-90
2023/09/11 03:14:03;;;;;;;12.45;11.18;;;;;;;27.91;100.00;96125.66;6165181;23;20008;-90
2023/09/11 03:16:28;;;;;;;13.45;12.05;;;;;;;27.87;100.00;96130.00;6164907;23;20009;-90
2023/09/11 03:18:57;;;;;;;13.68;12.27;;;;;;;28.03;100.00;96128.84;6165400;23;19997;-90
2023/09/11 03:21:29;;;;;;;14.60;13.07;;;;;;;27.96;100.00;96121.03;6164397;23;20016;-90
2023/09/11 03:23:55;;;;;;;19.77;14.30;;;;;;;27.37;100.00;96126.97;6163919;23;20023;-89
2023/09/11 03:26:21;;;;;;;14.77;13.27;;;;;;;28.01;100.00;96114.81;6161046;23;20060;-90
2023/09/11 03:28:50;;;;;;;15.32;12.73;;;;;;;27.96;100.00;96126.44;6149528;23;20040;-91
2023/09/11 03:31:19;;;;;;;16.85;12.32;;;;;;;27.78;100.00;96118.91;6141352;23;20001;-91
2023/09/11 03:33:45;;;;;;;12.82;11.52;;;;;;;27.75;100.00;96111.31;6140913;23;20016;-92
2023/09/11 03:36:49;;;;;;;14.48;12.93;;;;;;;27.50;100.00;96117.53;6139677;23;20005;-91
2023/09/11 03:39:15;;;;;;;18.38;14.32;;;;;;;27.76;100.00;96122.91;6139268;23;20001;-91
2023/09/11 03:41:40;;;;;;;15.15;13.48;;;;;;;27.69;100.00;96115.88;6139007;23;20460;-91
2023/09/11 03:44:06;;;;;;;14.25;12.75;;;;;;;27.83;100.00;96121.59;6138784;23;20005;-92
2023/09/11 03:46:32;;;;;;;16.73;13.55;;;;;;;27.62;100.00;96115.34;6138349;23;20012;-92
2023/09/11 03:48:57;;;;;;;14.18;12.07;;;;;;;27.66;100.00;96112.91;6164374;23;20009;-92
2023/09/11 03:51:23;;;;;;;12.68;11.38;;;;;;;27.38;100.00;96109.69;6164688;23;20452;-92
2023/09/11 03:53:49;;;;;;;14.38;12.90;;;;;;;27.30;100.00;96112.94;6143240;23;20593;-92
2023/09/11 03:56:20;;;;;;;15.25;13.65;;;;;;;27.47;100.00;96105.38;6139288;23;20063;-92
2023/09/11 03:58:46;;;;;;;14.52;13.02;;;;;;;27.46;100.00;96101.06;6138925;23;20035;-92
2023/09/11 04:01:14;;;;;;;21.33;13.80;;;;;;;27.43;100.00;96106.16;6138920;23;20013;-92
2023/09/11 04:03:41;;;;;;;17.38;13.75;;;;;;;27.44;100.00;96115.91;6163275;23;20013;-93
2023/09/11 04:06:07;;;;;;;15.43;13.55;;;;;;;27.66;100.00;96110.22;6139611;23;20473;-93
2023/09/11 04:08:32;;;;;;;16.75;14.95;;;;;;;27.80;100.00;96107.81;6139070;23;20001;-90
2023/09/11 04:10:58;;;;;;;19.10;15.15;;;;;;;27.77;100.00;96109.19;6139552;23;20015;-91
2023/09/11 04:13:23;;;;;;;16.77;14.48;;;;;;;27.77;100.00;96114.59;6189625;23;20036;-91
2023/09/11 04:15:49;;;;;;;17.73;15.30;;;;;;;27.62;100.00;96109.16;6139474;23;20050;-91
2023/09/11 04:18:14;;;;;;;17.40;15.65;;;;;;;27.36;100.00;96109.13;6138566;23;20291;-91
2023/09/11 04:20:44;;;;;;;17.35;14.52;;;;;;;27.07;100.00;96106.09;6164390;23;20047;-91
2023/09/11 04:23:09;;;;;;;17.52;15.70;;;;;;;27.37;100.00;96110.78;6139027;23;20001;-92
2023/09/11 04:25:35;;;;;;;18.25;14.60;;;;;;;27.74;100.00;96110.50;6163279;23;20437;-92
2023/09/11 04:28:00;;;;;;;18.50;15.95;;;;;;;27.62;100.00;96106.44;6138785;23;20008;-92
2023/09/11 04:34:07;;;;;;;18.27;16.40;;;;;;;27.25;100.00;96108.31;6190572;23;20044;-92
2023/09/11 04:36:33;;;;;;;17.77;15.88;;;;;;;26.83;100.00;96104.94;6139879;23;20032;-92
2023/09/11 04:38:59;;;;;;;18.90;16.85;;;;;;;27.36;100.00;96111.81;6140246;23;20001;-92
2023/09/11 04:41:25;;;;;;;21.38;15.98;;;;;;;27.85;100.00;96105.91;6139148;23;20299;-93
2023/09/11 04:43:51;;;;;;;18.63;16.27;;;;;;;27.79;100.00;96111.59;6136868;23;20032;-92
2023/09/11 04:46:27;;;;;;;17.40;15.60;;;;;;;27.68;100.00;96108.06;6138291;23;20001;-91
2023/09/11 04:48:55;;;;;;;18.23;16.20;;;;;;;27.78;100.00;96104.59;6140086;23;20008;-93
2023/09/11 04:51:21;;;;;;;18.52;16.52;;;;;;;27.94;100.00;96109.69;6138106;23;20005;-92
2023/09/11 04:53:46;;;;;;;18.55;16.65;;;;;;;27.81;100.00;96110.25;6142443;23;20307;-93
2023/09/11 04:56:12;;;;;;;18.42;16.00;;;;;;;28.17;100.00;96108.31;6149265;23;20019;-92
2023/09/11 04:58:39;;;;;;;20.92;15.35;;;;;;;27.96;100.00;96102.09;6158880;23;20508;-92
2023/09/11 05:01:05;;;;;;;18.67;15.80;;;;;;;27.80;100.00;96108.66;6139333;23;20013;-93
2023/09/11 05:07:12;;;;;;;16.55;14.77;;;;;;;27.82;100.00;96116.47;6192277;23;20023;-93
2023/09/11 05:09:39;;;;;;;16.00;14.30;;;;;;;28.07;100.00;96119.16;6143685;23;20009;-94
2023/09/11 05:12:05;;;;;;;18.52;15.00;;;;;;;28.15;100.00;96115.88;6142574;23;20496;-92
2023/09/11 05:14:31;;;;;;;17.35;15.45;;;;;;;27.81;100.00;96120.25;6142104;23;20071;-92
2023/09/11 05:16:57;;;;;;;16.88;15.18;;;;;;;27.87;100.00;96111.06;6141946;23;20009;-92
2023/09/11 05:19:23;;;;;;;20.83;15.80;;;;;;;28.17;100.00;96110.19;6141570;23;20075;-92
2023/09/11 05:21:48;;;;;;;17.90;14.82;;;;;;;28.08;100.00;96114.53;6146050;23;20004;-92
2023/09/11 05:24:14;;;;;;;15.93;14.25;;;;;;;28.41;100.00;96124.75;6162839;23;20043;-92
2023/09/11 05:26:40;;;;;;;17.85;15.50;;;;;;;28.19;100.00;96119.63;6162634;23;20001;-93
2023/09/11 05:29:05;;;;;;;18.63;16.73;;;;;;;28.61;100.00;96117.66;6149313;23;20088;-93
2023/09/11 05:31:31;;;;;;;17.90;15.70;;;;;;;28.67;100.00;96119.25;6143730;23;20012;-93
2023/09/11 05:33:56;;;;;;;18.17;15.32;;;;;;;28.57;100.00;96121.97;6141837;23;20113;-92
2023/09/11 05:36:22;;;;;;;20.83;15.90;;;;;;;29.20;100.00;96129.56;6142499;23;20012;-92
2023/09/11 05:38:47;;;;;;;18.23;14.90;;;;;;;29.60;100.00;96132.00;6140593;23;20013;-92
2023/09/11 05:41:13;;;;;;;20.38;14.15;;;;;;;29.26;100.00;96128.44;6138958;23;20008;-93
2023/09/11 05:43:40;;;;;;;20.05;14.98;;;;;;;29.37;100.00;96136.22;6139353;23;20104;-93
2023/09/11 05:46:06;;;;;;;18.95;15.18;;;;;;;29.84;100.00;96134.78;6138691;23;20001;-93
2023/09/11 05:48:32;;;;;;;17.27;14.50;;;;;;;30.22;100.00;96135.03;6137872;23;20434;-92
2023/09/11 05:50:58;;;;;;;17.25;14.73;;;;;;;29.82;100.00;96138.91;6142039;23;20039;-92
2023/09/11 05:53:23;;;;;;;17.42;14.73;;;;;;;30.42;100.00;96133.19;6139352;23;20004;-92
2023/09/11 05:55:49;;;;;;;18.50;16.08;;;;;;;30.34;99.62;96125.69;6140040;23;20158;-93
2023/09/11 05:58:15;;;;;;;15.57;13.93;;;;;;;30.66;98.33;96131.28;6141713;23;20452;-92
2023/09/11 06:00:40;;;;;;;15.32;13.55;;;;;;;30.76;97.65;96136.63;6143231;23;20033;-92
2023/09/11 06:03:06;;;;;;;15.93;14.00;;;;;;;31.32;93.04;96135.09;6138401;23;20008;-93
2023/09/11 06:05:35;;;;;;;17.23;14.63;;;;;;;30.61;100.00;96142.19;6138014;23;20001;-93
2023/09/11 06:08:00;;;;;;;17.42;14.82;;;;;;;30.86;100.00;96140.31;6162689;23;20507;-92
2023/09/11 06:10:26;;;;;;;16.63;13.18;;;;;;;30.76;100.00;96143.94;6138636;23;20000;-93
2023/09/11 06:12:51;;;;;;;21.23;13.93;;;;;;;31.36;95.17;96140.75;6139670;23;20001;-93
2023/09/11 06:15:17;;;;;;;14.95;13.45;;;;;;;31.23;98.56;96132.19;6137265;23;20009;-90
2023/09/11 06:17:43;;;;;;;14.60;13.05;;;;;;;31.06;98.48;96140.03;6135476;23;20489;-87
2023/09/11 06:20:09;;;;;;;15.57;12.80;;;;;;;31.64;91.93;96123.44;6137039;23;20008;-94
2023/09/11 06:22:38;;;;;;;15.60;11.77;;;;;;;32.18;86.45;96129.34;6139534;23;20434;-94
2023/09/11 06:25:19;;;;;;;13.73;11.88;;;;;;;32.02;86.47;96126.09;6135988;23;20016;-94
2023/09/11 06:27:45;;;;;;;14.73;11.73;;;;;;;32.25;87.94;96129.75;6143981;23;20009;-94
2023/09/11 06:30:10;;;;;;;14.00;12.25;;;;;;;32.44;85.10;96132.44;6141578;23;20055;-93
2023/09/11 06:32:36;;;;;;;13.45;11.73;;;;;;;33.19;79.24;96130.38;6136277;23;20008;-93
2023/09/11 06:35:04;;;;;;;13.60;11.50;;;;;;;33.42;79.24;96120.31;6159778;23;20051;-93
2023/09/11 06:37:30;;;;;;;13.05;11.65;;;;;;;33.74;72.62;96130.22;6136175;23;20032;-93
2023/09/11 06:39:56;;;;;;;11.32;10.23;;;;;;;33.84;68.23;96132.69;6137283;23;20008;-94
2023/09/11 06:42:23;;;;;;;13.32;11.02;;;;;;;33.55;75.10;96133.91;6136684;23;20013;-93
2023/09/11 06:44:53;;;;;;;15.20;10.82;;;;;;;34.39;68.59;96129.63;6162123;23;20020;-93
2023/09/11 06:47:19;;;;;;;13.23;10.82;;;;;;;34.43;63.46;96127.88;6161793;23;20226;-93
2023/09/11 06:49:44;;;;;;;12.85;10.68;;;;;;;33.92;67.21;96123.75;6163678;23;20011;-93
2023/09/11 06:52:10;;;;;;;11.80;10.10;;;;;;;33.97;67.65;96131.81;6136596;23;20001;-93
2023/09/11 06:54:35;;;;;;;12.43;10.25;;;;;;;33.98;68.15;96135.34;6138710;23;20025;-93
2023/09/11 06:57:01;;;;;;;13.75;10.80;;;;;;;34.25;66.60;96145.31;6140481;23;20388;-93
2023/09/11 06:59:27;;;;;;;13.18;10.13;;;;;;;35.14;62.58;96143.41;6165807;23;20001;-93
2023/09/11 07:01:52;;;;;;;11.82;9.18;;;;;;;36.41;57.83;96137.69;6154789;23;20024;-93
2023/09/11 07:04:18;;;;;;;13.93;11.43;;;;;;;34.63;62.52;96142.13;6147370;23;20009;-93
2023/09/11 07:06:44;;;;;;;11.02;9.93;;;;;;;35.54;58.56;96137.84;6136727;23;20071;-93
2023/09/11 07:09:10;;;;;;;9.80;8.80;;;;;;;36.46;55.08;96135.59;6137606;23;20012;-93
2023/09/11 07:11:35;;;;;;;11.00;9.77;;;;;;;36.70;54.46;96132.28;6161407;23;20015;-93
2023/09/11 07:14:02;;;;;;;11.45;9.18;;;;;;;37.48;51.79;96137.31;6137597;23;20080;-93
2023/09/11 07:16:28;;;;;;;10.45;8.70;;;;;;;36.88;50.74;96143.16;6136582;23;20036;-93
2023/09/11 07:18:54;;;;;;;12.27;9.25;;;;;;;36.43;51.73;96138.97;6136959;23;20009;-94
2023/09/11 07:21:19;;;;;;;10.93;9.23;;;;;;;37.17;49.98;96134.94;6161693;23;20057;-93
2023/09/11 07:23:45;;;;;;;10.63;9.10;;;;;;;36.91;49.52;96140.53;6137311;23;20009;-92
2023/09/11 07:26:10;;;;;;;9.80;8.80;;;;;;;37.86;47.25;96130.03;6138511;23;20000;-93
2023/09/11 07:29:06;;;;;;;10.68;8.05;;;;;;;37.25;48.44;96131.31;6164187;23;20362;-94
2023/09/11 07:31:33;;;;;;;11.38;8.93;;;;;;;37.82;47.99;96129.13;6137892;23;20005;-93
2023/09/11 07:33:59;;;;;;;10.52;9.25;;;;;;;37.61;47.76;96131.88;6162555;23;20009;-93
2023/09/11 07:36:26;;;;;;;11.48;8.93;;;;;;;37.83;47.87;96133.44;6143547;23;20318;-93
2023/09/11 07:38:52;;;;;;;9.90;8.35;;;;;;;38.78;46.20;96137.94;6136698;23;20001;-93
2023/09/11 07:41:18;;;;;;;13.18;9.70;;;;;;;39.27;43.18;96140.69;6135105;23;20012;-93
2023/09/11 07:43:48;;;;;;;13.18;9.32;;;;;;;38.84;45.15;96133.03;6137572;23;20071;-94
2023/09/11 07:46:14;;;;;;;12.38;9.00;;;;;;;39.20;44.44;96140.44;6161832;23;20220;-94
2023/09/11 07:48:40;;;;;;;10.52;8.57;;;;;;;39.23;43.54;96149.94;6162768;23;20057;-93
2023/09/11 07:51:05;;;;;;;10.02;9.02;;;;;;;38.80;45.38;96143.06;6162022;23;20001;-93
2023/09/11 07:53:31;;;;;;;10.98;8.50;;;;;;;39.49;42.97;96136.63;6188062;23;20047;-93
2023/09/11 07:55:57;;;;;;;9.63;8.63;;;;;;;39.45;43.24;96141.22;6137841;23;20005;-93
2023/09/11 07:58:23;;;;;;;9.52;8.52;;;;;;;38.94;43.14;96137.28;6161830;23;20001;-93
2023/09/11 08:00:49;;;;;;;10.07;9.00;;;;;;;39.30;44.40;96139.19;6161746;23;20072;-93
2023/09/11 08:03:14;;;;;;;11.40;8.10;;;;;;;40.24;41.13;96138.75;6135818;23;20063;-93
2023/09/11 08:05:40;;;;;;;8.90;7.93;;;;;;;39.12;43.45;96139.41;6161776;23;20005;-93
2023/09/11 08:08:05;;;;;;;9.57;8.05;;;;;;;40.93;39.56;96131.00;6160470;23;20016;-93
2023/09/11 08:10:58;;;;;;;10.07;8.57;;;;;;;39.87;40.98;96132.59;6135118;23;20575;-93
2023/09/11 08:13:37;;;;;;;10.48;8.98;;;;;;;40.58;39.80;96124.59;6135986;23;20031;-93
2023/09/11 08:16:02;;;;;;;12.80;8.80;;;;;;;40.73;39.30;96130.16;6159658;23;20013;-93
2023/09/11 08:18:28;;;;;;;12.15;8.07;;;;;;;40.40;40.59;96137.94;6159815;23;20492;-93
2023/09/11 08:20:53;;;;;;;10.65;8.15;;;;;;;39.70;40.35;96143.88;6136455;23;20020;-93
2023/09/11 08:23:19;;;;;;;9.18;8.25;;;;;;;40.22;40.43;96140.25;6135891;23;20001;-93
2023/09/11 08:25:45;;;;;;;8.70;7.65;;;;;;;40.20;40.49;96137.03;6135176;23;20005;-93
2023/09/11 08:28:11;;;;;;;9.63;8.15;;;;;;;39.98;39.97;96138.41;6160208;23;20008;-92
2023/09/11 08:30:36;;;;;;;9.70;7.82;;;;;;;39.40;40.36;96144.19;6162168;23;20075;-92
2023/09/11 08:33:03;;;;;;;9.85;8.00;;;;;;;39.90;39.01;96136.59;6136683;23;20012;-93
2023/09/11 08:35:29;;;;;;;11.57;7.68;;;;;;;41.48;36.82;96130.28;6186916;23;20015;-93
2023/09/11 08:37:54;;;;;;;14.45;8.63;;;;;;;41.40;37.47;96134.84;6135025;23;20400;-93
2023/09/11 08:40:29;;;;;;;10.38;7.75;;;;;;;41.44;35.74;96133.78;6136026;23;20001;-92
2023/09/11 08:42:55;;;;;;;8.88;7.00;;;;;;;42.51;34.98;96134.28;6160728;23;20005;-93
2023/09/11 08:45:23;;;;;;;10.95;7.03;;;;;;;42.62;35.26;96135.25;6133834;23;20457;-93
2023/09/11 08:47:48;;;;;;;9.10;7.25;;;;;;;40.63;37.11;96132.66;6158393;23;20068;-92
2023/09/11 08:50:19;;;;;;;10.18;8.25;;;;;;;39.76;38.83;96139.75;6159107;23;20012;-93
2023/09/11 08:52:46;;;;;;;11.55;7.35;;;;;;;40.18;38.44;96139.38;6158813;23;20442;-93
2023/09/11 08:55:17;;;;;;;7.78;6.47;;;;;;;40.70;36.55;96136.38;6158483;23;20008;-91
2023/09/11 08:57:43;;;;;;;9.98;6.80;;;;;;;41.01;35.90;96132.00;6135549;23;20009;-92
2023/09/11 09:00:13;;;;;;;7.50;6.45;;;;;;;41.82;35.14;96143.25;6160627;23;20033;-92
2023/09/11 09:02:39;;;;;;;10.13;6.78;;;;;;;41.25;35.73;96133.75;6135351;23;20409;-92
2023/09/11 09:05:06;;;;;;;10.38;6.82;;;;;;;40.93;35.33;96132.97;6140948;23;20019;-93
2023/09/11 09:07:34;;;;;;;10.43;7.53;;;;;;;41.62;35.71;96138.88;6152836;23;20016;-93
2023/09/11 09:10:02;;;;;;;8.85;7.03;;;;;;;41.14;35.42;96130.72;6137276;23;20016;-93
2023/09/11 09:12:29;;;;;;;9.38;6.20;;;;;;;42.94;33.79;96129.47;6136835;23;20060;-92
2023/09/11 09:14:55;;;;;;;8.32;6.50;;;;;;;42.92;34.67;96129.03;6160168;23;20079;-92
2023/09/11 09:17:21;;;;;;;10.05;7.35;;;;;;;41.86;34.76;96137.81;6158072;23;20005;-92
2023/09/11 09:19:46;;;;;;;8.18;7.20;;;;;;;41.95;34.85;96132.06;6159426;23;20012;-92
2023/09/11 09:22:13;;;;;;;8.82;7.40;;;;;;;41.55;34.59;96122.97;6134879;23;20426;-92
2023/09/11 09:24:50;;;;;;;10.40;7.25;;;;;;;41.85;33.84;96125.97;6133626;23;20019;-92
2023/09/11 09:27:16;;;;;;;7.20;6.10;;;;;;;43.41;32.31;96117.91;6134409;23;20039;-92
2023/09/11 09:29:41;;;;;;;7.30;6.53;;;;;;;43.93;32.47;96116.22;6133709;23;20004;-92
2023/09/11 09:32:08;;;;;;;10.57;7.75;;;;;;;43.18;33.31;96117.19;6159531;23;20001;-92
2023/09/11 09:34:36;;;;;;;11.43;7.05;;;;;;;42.43;35.24;96122.31;6160426;23;20016;-93
2023/09/11 09:37:02;;;;;;;10.82;7.47;;;;;;;42.18;34.80;96121.03;6134117;23;20009;-92
2023/09/11 09:39:29;;;;;;;8.88;7.05;;;;;;;42.71;34.31;96110.94;6158614;23;20016;-92
2023/09/11 09:41:56;;;;;;;11.35;7.32;;;;;;;43.04;33.97;96109.47;6133366;23;20005;-92
2023/09/11 09:44:39;;;;;;;11.18;7.15;;;;;;;44.25;31.66;96118.50;6135206;23;20016;-92
2023/09/11 09:47:11;;;;;;;10.68;6.70;;;;;;;44.32;31.26;96115.81;6159644;23;20017;-92
2023/09/11 09:49:43;;;;;;;7.35;6.22;;;;;;;43.88;31.89;96121.25;6160622;23;20012;-92
2023/09/11 09:52:08;;;;;;;;;;;;;;;44.48;30.32;96112.81;6159310;23;20005;-92
2023/09/11 09:54:55;;;;;;;8.50;6.40;;;;;;;43.51;32.58;96117.28;6134058;23;20405;-93
2023/09/11 09:57:22;;;;;;;8.38;6.07;;;;;;;44.71;30.57;96112.63;6134137;23;20031;-92
2023/09/11 09:59:50;;;;;;;10.55;6.57;;;;;;;43.92;32.36;96108.28;6159107;23;20032;-92
2023/09/11 10:02:26;;;;;;;7.82;5.95;;;;;;;44.67;30.28;96106.19;6159561;23;20005;-92
2023/09/11 10:04:57;;;;;;;6.85;5.95;;;;;;;44.95;29.73;96100.09;6159687;23;20009;-92
2023/09/11 10:07:40;;;;;;;8.25;6.60;;;;;;;44.04;31.38;96102.47;6133799;23;20005;-92
2023/09/11 10:10:23;;;;;;;8.20;6.60;;;;;;;44.39;30.87;96090.94;6133993;23;20004;-92
2023/09/11 10:13:00;;;;;;;10.55;7.00;;;;;;;43.44;31.31;96091.44;6134746;23;20365;-92
2023/09/11 10:15:26;;;;;;;11.15;6.95;;;;;;;42.92;32.90;96098.59;6133883;23;20013;-92
2023/09/11 10:17:56;;;;;;;9.77;6.40;;;;;;;42.54;32.70;96090.09;6158304;23;20342;-91
2023/09/11 10:20:22;;;;;;;6.75;5.63;;;;;;;42.85;32.72;96089.03;6134707;23;20047;-91
2023/09/11 10:22:48;;;;;;;8.88;6.35;;;;;;;43.52;30.93;96088.41;6159174;23;20001;-92
2023/09/11 10:25:14;;;;;;;9.63;7.05;;;;;;;42.78;32.44;96083.38;6135027;23;20017;-92
2023/09/11 10:27:40;;;;;;;10.00;5.60;;;;;;;44.11;28.74;96082.34;6135725;23;20001;-90
2023/09/11 10:30:09;;;;;;;8.02;5.82;;;;;;;43.75;29.73;96079.97;6137091;23;20005;-92
2023/09/11 10:32:45;;;;;;;7.38;5.47;;;;;;;43.96;28.96;96078.63;6162859;23;20578;-91
2023/09/11 10:35:11;;;;;;;8.23;5.53;;;;;;;43.53;29.77;96078.13;6136165;23;20005;-92
2023/09/11 10:37:41;;;;;;;8.75;6.05;;;;;;;43.35;30.36;96077.88;6160344;23;20012;-92
2023/09/11 10:40:10;;;;;;;9.32;5.88;;;;;;;43.62;29.91;96080.59;6160937;23;20105;-92
2023/09/11 10:42:35;;;;;;;10.40;6.25;;;;;;;43.06;30.14;96071.94;6136302;23;20005;-92
2023/09/11 10:45:03;;;;;;;9.02;5.80;;;;;;;44.12;30.08;96068.09;6160544;23;20020;-92
2023/09/11 10:47:29;;;;;;;13.30;6.38;;;;;;;44.26;29.90;96061.09;6161815;23;20095;-92
2023/09/11 10:49:57;;;;;;;9.85;5.90;;;;;;;44.83;29.81;96061.56;6160376;23;20015;-91
2023/09/11 10:52:24;;;;;;;10.02;5.78;;;;;;;43.96;29.31;96062.78;6134976;23;20079;-92
2023/09/11 10:54:51;;;;;;;9.15;6.03;;;;;;;44.47;29.89;96064.09;6135720;23;20008;-92
2023/09/11 10:57:17;;;;;;;10.60;5.68;;;;;;;43.95;28.79;96061.19;6138367;23;20013;-92
2023/09/11 10:59:42;;;;;;;9.45;5.95;;;;;;;44.23;30.12;96059.88;6137587;23;20158;-92
2023/09/11 11:02:08;;;;;;;8.60;6.78;;;;;;;44.48;27.88;96065.66;6136164;23;20469;-92
2023/09/11 11:04:36;;;;;;;9.18;5.78;;;;;;;43.58;30.54;96063.16;6137116;23;20013;-86
2023/09/11 11:07:02;;;;;;;9.40;6.50;;;;;;;42.58;31.48;96063.31;6137364;23;20088;-90
2023/09/11 11:09:27;;;;;;;9.13;5.70;;;;;;;44.71;28.79;96053.59;6136742;23;20329;-90
2023/09/11 11:11:56;;;;;;;9.77;5.85;;;;;;;44.76;28.76;96059.53;6154169;23;20329;-89
2023/09/11 11:14:23;;;;;;;7.57;5.43;;;;;;;44.67;28.50;96054.31;6160166;23;20440;-90
2023/09/11 11:17:00;;;;;;;9.70;5.35;;;;;;;43.57;29.42;96054.06;6160073;23;20013;-91
2023/09/11 11:19:31;;;;;;;9.07;5.78;;;;;;;42.95;30.13;96051.63;6135496;23;20387;-90
2023/09/11 11:21:58;;;;;;;9.17;5.23;;;;;;;44.39;29.41;96051.31;6160181;23;20008;-90
2023/09/11 11:24:25;;;;;;;9.98;5.75;;;;;;;44.91;27.11;96049.34;6135708;23;20012;-88
2023/09/11 11:26:57;;;;;;;8.98;5.60;;;;;;;43.95;28.39;96049.31;6134656;23;20012;-90
2023/09/11 11:29:26;;;;;;;10.98;5.80;;;;;;;44.90;28.32;96050.50;6135445;23;20058;-90
2023/09/11 11:31:53;;;;;;;10.30;6.13;;;;;;;44.25;29.05;96054.75;6134315;23;20027;-89
2023/09/11 11:34:24;;;;;;;9.57;6.00;;;;;;;43.89;28.63;96046.06;6135965;23;20004;-90
2023/09/11 11:36:53;;;;;;;9.63;5.60;;;;;;;45.44;27.17;96042.47;6105726;23;20009;-90
2023/09/11 11:39:22;;;;;;;9.40;5.18;;;;;;;45.30;26.62;96037.66;6130181;23;20092;-90